Qm Of London — ZCTD7 — position and weather

sailwx.info

Track history (hours):
 
Tides and Currents Weather Stations Pressure Air Temp Water Temp Dewpoint Dewpoint Depression Visibility Wind Speed Wind Dir Waves Ship Positions

Qm Of London

Last reported at 2015-Jul-31 18:33 UTC. Time now 2015-Jul-31 19:25 UTC.
Position N 36°24' E 025°23'.

Length 50 m; draft 2.7 m.

Type: Pleasure craft. MMSI: 319780000.

Date/timePositionNaut miles runAvg speedWind from/ knotsBaromVisibWave heightAir tempDewpointWater temp
2015-Jul-31 18:33N 36°24' E 025°23'0 0.0
2015-Jul-31 17:33N 36°24' E 025°23'0 0.0
2015-Jul-31 16:34N 36°24' E 025°23'0 0.0
2015-Jul-31 15:31N 36°24' E 025°23'0 0.0
2015-Jul-31 14:32N 36°24' E 025°23'0 0.0
2015-Jul-31 13:29N 36°24' E 025°23'0 0.0
2015-Jul-31 12:33N 36°24' E 025°23'0 0.0
2015-Jul-31 11:31N 36°24' E 025°23'0 0.0
2015-Jul-31 10:32N 36°24' E 025°23'0 0.0
2015-Jul-31 09:23N 36°24' E 025°23'0 0.0
2015-Jul-31 08:33N 36°24' E 025°23'0 0.0
2015-Jul-31 07:33N 36°24' E 025°23'0 0.0
2015-Jul-31 06:31N 36°24' E 025°23'1 1.2
2015-Jul-31 05:33N 36°24' E 025°22'1211.8
2015-Jul-31 04:33N 36°36' E 025°25'1312.4
2015-Jul-31 03:32N 36°47' E 025°32'8 1.5
2015-Jul-30 22:25N 36°55' E 025°35'2 0.3
2015-Jul-30 14:06N 36°56' E 025°37'0 0.0
2015-Jul-30 05:30N 36°56' E 025°37'0 0.3
2015-Jul-30 04:20N 36°56' E 025°37'0 0.0
2015-Jul-30 02:27N 36°56' E 025°37'0 0.0
2015-Jul-30 01:19N 36°56' E 025°37'0 0.0
2015-Jul-30 00:22N 36°56' E 025°37'0 0.0
2015-Jul-29 21:07N 36°56' E 025°37'0 0.1
2015-Jul-29 20:33N 36°56' E 025°37'10 9.5
2015-Jul-29 19:32N 36°49' E 025°29'56 1.4
2015-Jul-28 03:17N 37°32' E 024°44'912.7
2015-Jul-28 02:33N 37°32' E 024°56'1212.4
2015-Jul-28 01:33N 37°29' E 025°11'7 7.1
2015-Jul-28 00:33N 37°26' E 025°19'0 0.0
2015-Jul-27 23:31N 37°26' E 025°19'0 0.0
2015-Jul-27 22:32N 37°26' E 025°19'0 0.0
2015-Jul-27 21:32N 37°26' E 025°19'0 0.0
2015-Jul-27 20:33N 37°26' E 025°19'0 0.0
2015-Jul-27 19:33N 37°26' E 025°19'0 0.0
2015-Jul-27 18:31N 37°26' E 025°19'1 1.6
2015-Jul-27 17:33N 37°27' E 025°17'6 6.5
2015-Jul-27 16:33N 37°26' E 025°26'0 0.0
2015-Jul-27 15:33N 37°26' E 025°25'0 0.0
2015-Jul-27 14:31N 37°26' E 025°26'0 0.0
2015-Jul-27 13:29N 37°26' E 025°26'0 0.0
2015-Jul-27 12:32N 37°26' E 025°25'0 0.0
2015-Jul-27 11:33N 37°26' E 025°26'4 4.4
2015-Jul-27 10:33N 37°25' E 025°21'0 0.0
2015-Jul-27 09:31N 37°25' E 025°21'0 0.0
2015-Jul-27 08:32N 37°25' E 025°21'0 0.0
2015-Jul-27 07:32N 37°25' E 025°21'0 0.0
2015-Jul-27 06:33N 37°25' E 025°21'0 0.0
2015-Jul-27 05:31N 37°25' E 025°21'0 0.0
2015-Jul-27 04:31N 37°25' E 025°21'0 0.0
2015-Jul-27 03:32N 37°25' E 025°21'0 0.0
2015-Jul-27 02:33N 37°25' E 025°21'0 0.0
2015-Jul-27 01:33N 37°25' E 025°21'0 0.0
2015-Jul-27 00:31N 37°25' E 025°21'0 0.0
2015-Jul-26 23:32N 37°25' E 025°21'0 0.0
2015-Jul-26 22:32N 37°25' E 025°21'0 0.0
2015-Jul-26 21:33N 37°25' E 025°21'0 0.0
2015-Jul-26 20:31N 37°25' E 025°21'0 0.0
2015-Jul-26 19:31N 37°25' E 025°21'0 0.0
2015-Jul-26 18:32N 37°25' E 025°21'4 3.9
2015-Jul-26 17:33N 37°22' E 025°17'2 1.8
2015-Jul-26 16:33N 37°24' E 025°16'0 0.0
2015-Jul-26 15:33N 37°24' E 025°16'4 3.8
2015-Jul-26 14:33N 37°25' E 025°11'2 2.2
2015-Jul-26 13:32N 37°24' E 025°14'0 0.0
2015-Jul-26 12:29N 37°24' E 025°14'0 0.0
2015-Jul-26 11:33N 37°24' E 025°14'0 0.0
2015-Jul-26 10:34N 37°24' E 025°14'0 0.3
2015-Jul-26 09:31N 37°24' E 025°13'0 0.1
2015-Jul-26 08:33N 37°24' E 025°13'5 5.5
2015-Jul-26 07:33N 37°24' E 025°20'1 0.6
2015-Jul-26 06:31N 37°25' E 025°21'0 0.0
2015-Jul-26 05:32N 37°25' E 025°21'0 0.0
2015-Jul-26 04:29N 37°25' E 025°21'0 0.0
2015-Jul-26 03:33N 37°25' E 025°21'0 0.0
2015-Jul-26 02:31N 37°25' E 025°21'0 0.0
2015-Jul-26 01:31N 37°25' E 025°21'0 0.0
2015-Jul-26 00:32N 37°25' E 025°21'0 0.0
2015-Jul-25 23:33N 37°25' E 025°21'0 0.0
2015-Jul-25 22:33N 37°25' E 025°21'0 0.0
2015-Jul-25 21:31N 37°25' E 025°21'0 0.0
2015-Jul-25 20:32N 37°25' E 025°21'0 0.0
2015-Jul-25 19:32N 37°25' E 025°21'0 0.0
2015-Jul-25 18:33N 37°25' E 025°21'0 0.0
2015-Jul-25 17:28N 37°25' E 025°21'0 0.0
2015-Jul-25 16:33N 37°25' E 025°21'6 5.9
2015-Jul-25 15:33N 37°31' E 025°21'2 2.1
2015-Jul-25 14:29N 37°29' E 025°22'0 0.0
2015-Jul-25 13:32N 37°29' E 025°22'0 0.0
2015-Jul-25 12:33N 37°29' E 025°22'0 0.0
2015-Jul-25 11:28N 37°29' E 025°22'1 0.6
2015-Jul-25 10:33N 37°29' E 025°22'0 0.0
2015-Jul-25 09:31N 37°29' E 025°22'0 0.0
2015-Jul-25 08:31N 37°29' E 025°22'4 4.6
2015-Jul-25 07:33N 37°26' E 025°17'3 3.1
2015-Jul-25 06:32N 37°25' E 025°20'0 0.0
2015-Jul-25 05:33N 37°25' E 025°20'0 0.0
2015-Jul-25 04:31N 37°25' E 025°20'0 0.0
2015-Jul-25 03:32N 37°25' E 025°20'0 0.0
2015-Jul-25 02:32N 37°25' E 025°20'0 0.0
2015-Jul-25 01:33N 37°25' E 025°20'0 0.0
2015-Jul-25 00:34N 37°25' E 025°20'0 0.0
2015-Jul-24 23:31N 37°25' E 025°20'0 0.0
2015-Jul-24 22:32N 37°25' E 025°20'0 0.0
2015-Jul-24 21:33N 37°25' E 025°20'0 0.0
2015-Jul-24 20:33N 37°25' E 025°20'0 0.0
2015-Jul-24 19:28N 37°25' E 025°20'0 0.0
2015-Jul-24 18:32N 37°25' E 025°20'0 0.0
2015-Jul-24 17:33N 37°25' E 025°20'0 0.0
2015-Jul-24 16:33N 37°25' E 025°20'0 0.0
2015-Jul-24 15:31N 37°25' E 025°20'5 5.0
2015-Jul-24 14:33N 37°24' E 025°14'0 0.0
2015-Jul-24 13:31N 37°24' E 025°14'0 0.0
2015-Jul-24 12:32N 37°24' E 025°14'0 0.0
2015-Jul-24 11:32N 37°24' E 025°14'0 0.0
2015-Jul-24 10:33N 37°24' E 025°14'0 0.0
2015-Jul-24 09:33N 37°24' E 025°14'0 0.1
2015-Jul-24 08:34N 37°24' E 025°14'5 4.7
2015-Jul-24 07:33N 37°24' E 025°20'0 0.0
2015-Jul-24 06:33N 37°24' E 025°20'0 0.0
2015-Jul-24 05:31N 37°24' E 025°20'0 0.0
2015-Jul-24 04:31N 37°24' E 025°20'0 0.0
2015-Jul-24 03:32N 37°24' E 025°20'0 0.0
2015-Jul-24 02:33N 37°24' E 025°20'0 0.0
2015-Jul-24 01:31N 37°24' E 025°20'0 0.0
2015-Jul-24 00:31N 37°25' E 025°20'0 0.0
2015-Jul-23 23:32N 37°25' E 025°20'0 0.0
2015-Jul-23 22:33N 37°25' E 025°20'0 0.0
2015-Jul-23 21:33N 37°25' E 025°20'0 0.0
2015-Jul-23 20:25N 37°24' E 025°20'0 0.0
2015-Jul-23 19:32N 37°24' E 025°20'0 0.0
2015-Jul-23 18:32N 37°24' E 025°20'0 0.0
2015-Jul-23 17:33N 37°24' E 025°20'0 0.0
2015-Jul-23 16:31N 37°24' E 025°20'0 0.0
2015-Jul-23 15:31N 37°24' E 025°20'0 0.0
2015-Jul-23 14:32N 37°24' E 025°20'0 0.0
2015-Jul-23 13:33N 37°24' E 025°20'0 0.4
2015-Jul-23 12:33N 37°24' E 025°20'0 0.0
2015-Jul-23 11:33N 37°24' E 025°20'0 0.0
2015-Jul-23 10:33N 37°24' E 025°20'0 0.0
2015-Jul-23 09:33N 37°24' E 025°20'0 0.0
2015-Jul-23 08:33N 37°24' E 025°20'0 0.0
2015-Jul-23 07:33N 37°24' E 025°20'0 0.0
2015-Jul-23 06:33N 37°24' E 025°20'0 0.0
2015-Jul-23 05:33N 37°24' E 025°20'0 0.0
2015-Jul-23 04:34N 37°24' E 025°20'0 0.0
2015-Jul-23 03:34N 37°24' E 025°20'0 0.1
2015-Jul-23 02:33N 37°24' E 025°20'8 7.7
2015-Jul-23 01:34N 37°16' E 025°20'1211.6
2015-Jul-23 00:33N 37°05' E 025°18'2110.4
2015-Jul-22 22:33N 36°47' E 025°31'1312.0
2015-Jul-22 21:30N 36°45' E 025°47'3 1.4
2015-Jul-22 19:29N 36°47' E 025°49'0 0.0
2015-Jul-22 18:30N 36°47' E 025°49'0 0.1
2015-Jul-22 17:27N 36°47' E 025°49'7 0.4
2015-Jul-22 00:13N 36°50' E 025°57'912.6
2015-Jul-21 23:32N 36°51' E 026°08'  
Track history (hours):
 
Tides and Currents Weather Stations Pressure Air Temp Water Temp Dewpoint Dewpoint Depression Visibility Wind Speed Wind Dir Waves Ship Positions

Qm Of London

Last reported at 2015-Jul-31 18:33 UTC. Time now 2015-Jul-31 19:25 UTC.
Position N 36°24' E 025°23'.

Length 50 m; draft 2.7 m.

Type: Pleasure craft. MMSI: 319780000.

Date/timePositionNaut miles runAvg speedWind from/ knotsBaromVisibWave heightAir tempDewpointWater temp
2015-Jul-31 18:33N 36°24' E 025°23'0 0.0
2015-Jul-31 17:33N 36°24' E 025°23'0 0.0
2015-Jul-31 16:34N 36°24' E 025°23'0 0.0
2015-Jul-31 15:31N 36°24' E 025°23'0 0.0
2015-Jul-31 14:32N 36°24' E 025°23'0 0.0
2015-Jul-31 13:29N 36°24' E 025°23'0 0.0
2015-Jul-31 12:33N 36°24' E 025°23'0 0.0
2015-Jul-31 11:31N 36°24' E 025°23'0 0.0
2015-Jul-31 10:32N 36°24' E 025°23'0 0.0
2015-Jul-31 09:23N 36°24' E 025°23'0 0.0
2015-Jul-31 08:33N 36°24' E 025°23'0 0.0
2015-Jul-31 07:33N 36°24' E 025°23'0 0.0
2015-Jul-31 06:31N 36°24' E 025°23'1 1.2
2015-Jul-31 05:33N 36°24' E 025°22'1211.8
2015-Jul-31 04:33N 36°36' E 025°25'1312.4
2015-Jul-31 03:32N 36°47' E 025°32'8 1.5
2015-Jul-30 22:25N 36°55' E 025°35'2 0.3
2015-Jul-30 14:06N 36°56' E 025°37'0 0.0
2015-Jul-30 05:30N 36°56' E 025°37'0 0.3
2015-Jul-30 04:20N 36°56' E 025°37'0 0.0
2015-Jul-30 02:27N 36°56' E 025°37'0 0.0
2015-Jul-30 01:19N 36°56' E 025°37'0 0.0
2015-Jul-30 00:22N 36°56' E 025°37'0 0.0
2015-Jul-29 21:07N 36°56' E 025°37'0 0.1
2015-Jul-29 20:33N 36°56' E 025°37'10 9.5
2015-Jul-29 19:32N 36°49' E 025°29'56 1.4
2015-Jul-28 03:17N 37°32' E 024°44'912.7
2015-Jul-28 02:33N 37°32' E 024°56'1212.4
2015-Jul-28 01:33N 37°29' E 025°11'7 7.1
2015-Jul-28 00:33N 37°26' E 025°19'0 0.0
2015-Jul-27 23:31N 37°26' E 025°19'0 0.0
2015-Jul-27 22:32N 37°26' E 025°19'0 0.0
2015-Jul-27 21:32N 37°26' E 025°19'0 0.0
2015-Jul-27 20:33N 37°26' E 025°19'0 0.0
2015-Jul-27 19:33N 37°26' E 025°19'0 0.0
2015-Jul-27 18:31N 37°26' E 025°19'1 1.6
2015-Jul-27 17:33N 37°27' E 025°17'6 6.5
2015-Jul-27 16:33N 37°26' E 025°26'0 0.0
2015-Jul-27 15:33N 37°26' E 025°25'0 0.0
2015-Jul-27 14:31N 37°26' E 025°26'0 0.0
2015-Jul-27 13:29N 37°26' E 025°26'0 0.0
2015-Jul-27 12:32N 37°26' E 025°25'0 0.0
2015-Jul-27 11:33N 37°26' E 025°26'4 4.4
2015-Jul-27 10:33N 37°25' E 025°21'0 0.0
2015-Jul-27 09:31N 37°25' E 025°21'0 0.0
2015-Jul-27 08:32N 37°25' E 025°21'0 0.0
2015-Jul-27 07:32N 37°25' E 025°21'0 0.0
2015-Jul-27 06:33N 37°25' E 025°21'0 0.0
2015-Jul-27 05:31N 37°25' E 025°21'0 0.0
2015-Jul-27 04:31N 37°25' E 025°21'0 0.0
2015-Jul-27 03:32N 37°25' E 025°21'0 0.0
2015-Jul-27 02:33N 37°25' E 025°21'0 0.0
2015-Jul-27 01:33N 37°25' E 025°21'0 0.0
2015-Jul-27 00:31N 37°25' E 025°21'0 0.0
2015-Jul-26 23:32N 37°25' E 025°21'0 0.0
2015-Jul-26 22:32N 37°25' E 025°21'0 0.0
2015-Jul-26 21:33N 37°25' E 025°21'0 0.0
2015-Jul-26 20:31N 37°25' E 025°21'0 0.0
2015-Jul-26 19:31N 37°25' E 025°21'0 0.0
2015-Jul-26 18:32N 37°25' E 025°21'4 3.9
2015-Jul-26 17:33N 37°22' E 025°17'2 1.8
2015-Jul-26 16:33N 37°24' E 025°16'0 0.0
2015-Jul-26 15:33N 37°24' E 025°16'4 3.8
2015-Jul-26 14:33N 37°25' E 025°11'2 2.2
2015-Jul-26 13:32N 37°24' E 025°14'0 0.0
2015-Jul-26 12:29N 37°24' E 025°14'0 0.0
2015-Jul-26 11:33N 37°24' E 025°14'0 0.0
2015-Jul-26 10:34N 37°24' E 025°14'0 0.3
2015-Jul-26 09:31N 37°24' E 025°13'0 0.1
2015-Jul-26 08:33N 37°24' E 025°13'5 5.5
2015-Jul-26 07:33N 37°24' E 025°20'1 0.6
2015-Jul-26 06:31N 37°25' E 025°21'0 0.0
2015-Jul-26 05:32N 37°25' E 025°21'0 0.0
2015-Jul-26 04:29N 37°25' E 025°21'0 0.0
2015-Jul-26 03:33N 37°25' E 025°21'0 0.0
2015-Jul-26 02:31N 37°25' E 025°21'0 0.0
2015-Jul-26 01:31N 37°25' E 025°21'0 0.0
2015-Jul-26 00:32N 37°25' E 025°21'0 0.0
2015-Jul-25 23:33N 37°25' E 025°21'0 0.0
2015-Jul-25 22:33N 37°25' E 025°21'0 0.0
2015-Jul-25 21:31N 37°25' E 025°21'0 0.0
2015-Jul-25 20:32N 37°25' E 025°21'0 0.0
2015-Jul-25 19:32N 37°25' E 025°21'0 0.0
2015-Jul-25 18:33N 37°25' E 025°21'0 0.0
2015-Jul-25 17:28N 37°25' E 025°21'0 0.0
2015-Jul-25 16:33N 37°25' E 025°21'6 5.9
2015-Jul-25 15:33N 37°31' E 025°21'2 2.1
2015-Jul-25 14:29N 37°29' E 025°22'0 0.0
2015-Jul-25 13:32N 37°29' E 025°22'0 0.0
2015-Jul-25 12:33N 37°29' E 025°22'0 0.0
2015-Jul-25 11:28N 37°29' E 025°22'1 0.6
2015-Jul-25 10:33N 37°29' E 025°22'0 0.0
2015-Jul-25 09:31N 37°29' E 025°22'0 0.0
2015-Jul-25 08:31N 37°29' E 025°22'4 4.6
2015-Jul-25 07:33N 37°26' E 025°17'3 3.1
2015-Jul-25 06:32N 37°25' E 025°20'0 0.0
2015-Jul-25 05:33N 37°25' E 025°20'0 0.0
2015-Jul-25 04:31N 37°25' E 025°20'0 0.0
2015-Jul-25 03:32N 37°25' E 025°20'0 0.0
2015-Jul-25 02:32N 37°25' E 025°20'0 0.0
2015-Jul-25 01:33N 37°25' E 025°20'0 0.0
2015-Jul-25 00:34N 37°25' E 025°20'0 0.0
2015-Jul-24 23:31N 37°25' E 025°20'0 0.0
2015-Jul-24 22:32N 37°25' E 025°20'0 0.0
2015-Jul-24 21:33N 37°25' E 025°20'0 0.0
2015-Jul-24 20:33N 37°25' E 025°20'0 0.0
2015-Jul-24 19:28N 37°25' E 025°20'0 0.0
2015-Jul-24 18:32N 37°25' E 025°20'0 0.0
2015-Jul-24 17:33N 37°25' E 025°20'0 0.0
2015-Jul-24 16:33N 37°25' E 025°20'0 0.0
2015-Jul-24 15:31N 37°25' E 025°20'5 5.0
2015-Jul-24 14:33N 37°24' E 025°14'0 0.0
2015-Jul-24 13:31N 37°24' E 025°14'0 0.0
2015-Jul-24 12:32N 37°24' E 025°14'0 0.0
2015-Jul-24 11:32N 37°24' E 025°14'0 0.0
2015-Jul-24 10:33N 37°24' E 025°14'0 0.0
2015-Jul-24 09:33N 37°24' E 025°14'0 0.1
2015-Jul-24 08:34N 37°24' E 025°14'5 4.7
2015-Jul-24 07:33N 37°24' E 025°20'0 0.0
2015-Jul-24 06:33N 37°24' E 025°20'0 0.0
2015-Jul-24 05:31N 37°24' E 025°20'0 0.0
2015-Jul-24 04:31N 37°24' E 025°20'0 0.0
2015-Jul-24 03:32N 37°24' E 025°20'0 0.0
2015-Jul-24 02:33N 37°24' E 025°20'0 0.0
2015-Jul-24 01:31N 37°24' E 025°20'0 0.0
2015-Jul-24 00:31N 37°25' E 025°20'0 0.0
2015-Jul-23 23:32N 37°25' E 025°20'0 0.0
2015-Jul-23 22:33N 37°25' E 025°20'0 0.0
2015-Jul-23 21:33N 37°25' E 025°20'0 0.0
2015-Jul-23 20:25N 37°24' E 025°20'0 0.0
2015-Jul-23 19:32N 37°24' E 025°20'0 0.0
2015-Jul-23 18:32N 37°24' E 025°20'0 0.0
2015-Jul-23 17:33N 37°24' E 025°20'0 0.0
2015-Jul-23 16:31N 37°24' E 025°20'0 0.0
2015-Jul-23 15:31N 37°24' E 025°20'0 0.0
2015-Jul-23 14:32N 37°24' E 025°20'0 0.0
2015-Jul-23 13:33N 37°24' E 025°20'0 0.4
2015-Jul-23 12:33N 37°24' E 025°20'0 0.0
2015-Jul-23 11:33N 37°24' E 025°20'0 0.0
2015-Jul-23 10:33N 37°24' E 025°20'0 0.0
2015-Jul-23 09:33N 37°24' E 025°20'0 0.0
2015-Jul-23 08:33N 37°24' E 025°20'0 0.0
2015-Jul-23 07:33N 37°24' E 025°20'0 0.0
2015-Jul-23 06:33N 37°24' E 025°20'0 0.0
2015-Jul-23 05:33N 37°24' E 025°20'0 0.0
2015-Jul-23 04:34N 37°24' E 025°20'0 0.0
2015-Jul-23 03:34N 37°24' E 025°20'0 0.1
2015-Jul-23 02:33N 37°24' E 025°20'8 7.7
2015-Jul-23 01:34N 37°16' E 025°20'1211.6
2015-Jul-23 00:33N 37°05' E 025°18'2110.4
2015-Jul-22 22:33N 36°47' E 025°31'1312.0
2015-Jul-22 21:30N 36°45' E 025°47'3 1.4
2015-Jul-22 19:29N 36°47' E 025°49'0 0.0
2015-Jul-22 18:30N 36°47' E 025°49'0 0.1
2015-Jul-22 17:27N 36°47' E 025°49'7 0.4
2015-Jul-22 00:13N 36°50' E 025°57'912.6
2015-Jul-21 23:32N 36°51' E 026°08'  

Dump ship's entire track history